Time,TemperatureF,DewpointF,PressureIn,WindDirection,WindDirectionDegrees,WindSpeedMPH,WindSpeedGustMPH,Humidity,HourlyPrecipIn,Conditions,Clouds,dailyrainin,SoftwareType,DateUTC
2013-05-04 02:21:00,42.0,40.0,30.08,ENE,65,0.0,0.0,94,0.00,,,0.00,,2013-05-04 09:21:00,
2013-05-04 02:32:00,42.0,40.0,30.07,ENE,65,0.0,0.0,94,0.00,,,0.00,,2013-05-04 09:32:00,
2013-05-04 02:42:00,42.0,40.0,30.07,ENE,65,0.0,0.0,94,0.00,,,0.00,,2013-05-04 09:42:00,
2013-05-04 02:52:00,42.0,41.0,30.07,ENE,65,0.0,0.0,95,0.00,,,0.00,,2013-05-04 09:52:00,
2013-05-04 03:02:00,42.0,41.0,30.06,ENE,65,0.0,0.0,95,0.00,,,0.00,,2013-05-04 10:02:00,
2013-05-04 03:12:00,42.0,41.0,30.06,ENE,65,0.0,0.0,95,0.00,,,0.00,,2013-05-04 10:12:00,
2013-05-04 03:22:00,42.0,41.0,30.06,ENE,65,0.0,0.0,95,0.00,,,0.00,,2013-05-04 10:22:00,
2013-05-04 03:32:00,42.0,41.0,30.06,ENE,65,0.0,0.0,95,0.00,,,0.00,,2013-05-04 10:32:00,
2013-05-04 03:42:00,42.0,41.0,30.06,ENE,65,0.0,0.0,95,0.00,,,0.00,,2013-05-04 10:42:00,
2013-05-04 03:52:00,41.0,40.0,30.05,ENE,65,0.0,0.0,95,0.00,,,0.00,,2013-05-04 10:52:00,
2013-05-04 04:02:00,41.0,40.0,30.05,ENE,65,0.0,0.0,95,0.00,,,0.00,,2013-05-04 11:02:00,
2013-05-04 04:11:00,41.0,40.0,30.05,ENE,65,0.0,0.0,95,0.00,,,0.00,,2013-05-04 11:11:00,
2013-05-04 04:21:00,41.0,40.0,30.05,ENE,65,0.0,0.0,95,0.00,,,0.00,,2013-05-04 11:21:00,
2013-05-04 04:32:00,41.0,40.0,30.05,ENE,65,0.0,0.0,95,0.00,,,0.00,,2013-05-04 11:32:00,
2013-05-04 04:42:00,41.0,40.0,30.05,ENE,65,0.0,0.0,95,0.00,,,0.00,,2013-05-04 11:42:00,
2013-05-04 04:53:00,40.0,39.0,30.04,ENE,65,0.0,0.0,95,0.00,,,0.00,,2013-05-04 11:53:00,
2013-05-04 05:04:00,40.0,39.0,30.03,ENE,65,0.0,0.0,95,0.00,,,0.00,,2013-05-04 12:04:00,
2013-05-04 05:12:00,40.0,39.0,30.03,ENE,65,0.0,0.0,95,0.00,,,0.00,,2013-05-04 12:12:00,
2013-05-04 05:23:00,40.0,39.0,30.03,ENE,65,0.0,0.0,95,0.00,,,0.00,,2013-05-04 12:23:00,
2013-05-04 05:33:00,40.0,39.0,30.03,ENE,65,0.0,0.0,95,0.00,,,0.00,,2013-05-04 12:33:00,
2013-05-04 05:41:00,40.0,39.0,30.03,ENE,65,0.0,0.0,95,0.00,,,0.00,,2013-05-04 12:41:00,
2013-05-04 05:52:00,40.0,39.0,30.02,ENE,65,0.0,0.0,95,0.00,,,0.00,,2013-05-04 12:52:00,
2013-05-04 06:01:00,39.0,38.0,30.02,ENE,65,0.0,0.0,95,0.00,,,0.00,,2013-05-04 13:01:00,
2013-05-04 06:11:00,39.0,38.0,30.02,ENE,65,0.0,0.0,95,0.00,,,0.00,,2013-05-04 13:11:00,
2013-05-04 06:21:00,39.0,38.0,30.02,ENE,65,0.0,0.0,95,0.00,,,0.00,,2013-05-04 13:21:00,
2013-05-04 06:32:00,39.0,38.0,30.02,ENE,65,0.0,0.0,95,0.00,,,0.00,,2013-05-04 13:32:00,
2013-05-04 06:41:00,39.0,38.0,30.02,ENE,65,0.0,0.0,95,0.00,,,0.00,,2013-05-04 13:41:00,
2013-05-04 06:52:00,39.0,38.0,30.01,ENE,65,0.0,0.0,95,0.00,,,0.00,,2013-05-04 13:52:00,
2013-05-04 07:02:00,39.0,38.0,30.01,ENE,65,0.0,0.0,95,0.00,,,0.00,,2013-05-04 14:02:00,
2013-05-04 07:11:00,39.0,38.0,30.01,ENE,65,0.0,0.0,95,0.00,,,0.00,,2013-05-04 14:11:00,
2013-05-04 07:21:00,39.0,38.0,30.01,ENE,65,0.0,0.0,95,0.00,,,0.00,,2013-05-04 14:21:00,
2013-05-04 07:32:00,39.0,38.0,30.01,ENE,65,0.0,0.0,95,0.00,,,0.00,,2013-05-04 14:32:00,
2013-05-04 07:41:00,39.0,38.0,30.01,ENE,65,0.0,0.0,95,0.00,,,0.00,,2013-05-04 14:41:00,
2013-05-04 07:51:00,39.0,38.0,30.01,ENE,65,0.0,0.0,95,0.00,,,0.00,,2013-05-04 14:51:00,
2013-05-04 08:01:00,39.0,38.0,30.01,ENE,65,0.0,0.0,96,0.00,,,0.00,,2013-05-04 15:01:00,
2013-05-04 08:11:00,39.0,38.0,30.01,ENE,65,0.0,0.0,96,0.00,,,0.00,,2013-05-04 15:11:00,
2013-05-04 08:21:00,41.0,40.0,30.00,ENE,65,0.0,0.0,96,0.00,,,0.00,,2013-05-04 15:21:00,
2013-05-04 08:33:00,42.0,41.0,30.00,ENE,65,0.0,0.0,97,0.00,,,0.00,,2013-05-04 15:33:00,
2013-05-04 08:43:00,42.0,41.0,30.00,ENE,65,0.0,0.0,97,0.00,,,0.00,,2013-05-04 15:43:00,
2013-05-04 08:52:00,42.0,41.0,30.00,ENE,65,0.0,0.0,97,0.00,,,0.00,,2013-05-04 15:52:00,
2013-05-04 09:03:00,49.0,48.0,29.98,ENE,65,0.0,1.0,97,0.00,,,0.00,,2013-05-04 16:03:00,
2013-05-04 09:12:00,49.0,48.0,29.98,ENE,65,0.0,1.0,97,0.00,,,0.00,,2013-05-04 16:12:00,
2013-05-04 09:22:00,49.0,48.0,29.98,ENE,65,0.0,1.0,97,0.00,,,0.00,,2013-05-04 16:22:00,
2013-05-04 09:33:00,54.0,53.0,29.98,ENE,65,0.0,0.0,97,0.00,,,0.00,,2013-05-04 16:33:00,
2013-05-04 09:42:00,54.0,53.0,29.98,ENE,65,0.0,0.0,97,0.00,,,0.00,,2013-05-04 16:42:00,
2013-05-04 09:52:00,54.0,53.0,29.98,ENE,65,0.0,0.0,97,0.00,,,0.00,,2013-05-04 16:52:00,
2013-05-04 10:02:00,54.0,53.0,29.98,ENE,65,0.0,0.0,97,0.00,,,0.00,,2013-05-04 17:02:00,
2013-05-04 10:12:00,54.0,53.0,29.98,ENE,65,0.0,0.0,97,0.00,,,0.00,,2013-05-04 17:12:00,
2013-05-04 11:01:00,72.0,54.0,29.95,SE,145,0.0,3.0,53,0.00,,,0.00,,2013-05-04 18:01:00,
2013-05-04 11:12:00,72.0,54.0,29.95,SE,145,0.0,3.0,53,0.00,,,0.00,,2013-05-04 18:12:00,
2013-05-04 11:21:00,71.0,53.0,29.95,SSE,154,0.0,5.0,53,0.00,,,0.00,,2013-05-04 18:21:00,
2013-05-04 11:32:00,72.0,52.0,29.94,SW,231,1.0,4.0,50,0.00,,,0.00,,2013-05-04 18:32:00,
2013-05-04 11:42:00,72.0,52.0,29.94,SW,231,1.0,4.0,50,0.00,,,0.00,,2013-05-04 18:42:00,
2013-05-04 11:52:00,72.0,52.0,29.94,SW,231,1.0,4.0,50,0.00,,,0.00,,2013-05-04 18:52:00,
2013-05-04 12:01:00,76.0,52.0,29.92,SW,215,2.0,6.0,44,0.00,,,0.00,,2013-05-04 19:01:00,
2013-05-04 12:11:00,76.0,52.0,29.92,SW,215,2.0,6.0,44,0.00,,,0.00,,2013-05-04 19:11:00,
2013-05-04 12:21:00,74.0,52.0,29.92,WSW,242,1.0,6.0,46,0.00,,,0.00,,2013-05-04 19:21:00,
2013-05-04 12:31:00,73.0,54.0,29.91,West,262,1.0,6.0,51,0.00,,,0.00,,2013-05-04 19:31:00,
2013-05-04 13:01:00,72.0,51.0,29.89,SSW,200,2.0,6.0,48,0.00,,,0.00,,2013-05-04 20:01:00,
2013-05-04 13:11:00,72.0,51.0,29.89,SSW,200,2.0,6.0,48,0.00,,,0.00,,2013-05-04 20:11:00,
2013-05-04 13:21:00,72.0,51.0,29.89,SSW,200,2.0,6.0,48,0.00,,,0.00,,2013-05-04 20:21:00,
2013-05-04 13:31:00,71.0,51.0,29.88,SSW,200,1.0,6.0,49,0.00,,,0.00,,2013-05-04 20:31:00,
2013-05-04 13:41:00,71.0,51.0,29.88,SSW,200,1.0,6.0,49,0.00,,,0.00,,2013-05-04 20:41:00,
2013-05-04 13:52:00,71.0,51.0,29.88,SSW,200,1.0,6.0,49,0.00,,,0.00,,2013-05-04 20:52:00,
2013-05-04 14:01:00,71.0,51.0,29.88,SSW,200,1.0,6.0,49,0.00,,,0.00,,2013-05-04 21:01:00,
2013-05-04 14:11:00,71.0,51.0,29.88,SSW,200,1.0,6.0,49,0.00,,,0.00,,2013-05-04 21:11:00,
2013-05-04 14:53:00,70.0,52.0,29.84,SW,218,2.0,9.0,52,0.00,,,0.00,,2013-05-04 21:53:00,
2013-05-04 15:03:00,69.0,51.0,29.83,SW,229,3.0,6.0,53,0.00,,,0.00,,2013-05-04 22:03:00,
2013-05-04 15:22:00,70.0,52.0,29.83,SSW,210,2.0,7.0,53,0.00,,,0.00,,2013-05-04 22:22:00,
2013-05-04 15:32:00,70.0,52.0,29.83,SSW,210,2.0,7.0,53,0.00,,,0.00,,2013-05-04 22:32:00,
2013-05-04 15:42:00,70.0,52.0,29.83,SSW,210,2.0,7.0,53,0.00,,,0.00,,2013-05-04 22:42:00,
2013-05-04 15:52:00,70.0,52.0,29.83,SSW,210,2.0,7.0,53,0.00,,,0.00,,2013-05-04 22:52:00,
2013-05-04 16:02:00,69.0,51.0,29.81,SW,218,2.0,5.0,53,0.00,,,0.00,,2013-05-04 23:02:00,
2013-05-04 16:21:00,71.0,49.0,29.80,NNW,334,1.0,4.0,46,0.00,,,0.00,,2013-05-04 23:21:00,
2013-05-04 16:32:00,71.0,49.0,29.80,NNW,334,1.0,4.0,46,0.00,,,0.00,,2013-05-04 23:32:00,
2013-05-04 16:42:00,71.0,49.0,29.80,NNW,334,1.0,4.0,46,0.00,,,0.00,,2013-05-04 23:42:00,
2013-05-04 16:52:00,71.0,49.0,29.80,NNW,334,1.0,4.0,46,0.00,,,0.00,,2013-05-04 23:52:00,
2013-05-04 17:32:00,67.0,50.0,29.78,SSW,199,0.0,4.0,55,0.00,,,0.00,,2013-05-05 00:32:00,
2013-05-04 17:52:00,68.0,50.0,29.78,SE,124,0.0,2.0,53,0.00,,,0.00,,2013-05-05 00:52:00,
2013-05-04 18:01:00,66.0,49.0,29.78,SSW,209,2.0,5.0,55,0.00,,,0.00,,2013-05-05 01:01:00,
2013-05-04 18:21:00,63.0,49.0,29.78,SW,227,1.0,4.0,60,0.00,,,0.00,,2013-05-05 01:21:00,
2013-05-04 18:32:00,62.0,48.0,29.78,NW,313,1.0,5.0,61,0.00,,,0.00,,2013-05-05 01:32:00,
2013-05-04 19:02:00,61.0,48.0,29.77,WSW,243,0.0,2.0,63,0.00,,,0.00,,2013-05-05 02:02:00,
2013-05-04 19:31:00,60.0,48.0,29.76,East,80,0.0,1.0,65,0.00,,,0.00,,2013-05-05 02:31:00,
2013-05-04 19:51:00,60.0,49.0,29.76,East,80,0.0,0.0,67,0.00,,,0.00,,2013-05-05 02:51:00,
2013-05-04 20:33:00,56.0,48.0,29.77,East,80,0.0,0.0,75,0.00,,,0.00,,2013-05-05 03:33:00,
2013-05-04 20:53:00,55.0,48.0,29.77,East,80,0.0,0.0,78,0.00,,,0.00,,2013-05-05 03:53:00,
2013-05-04 21:02:00,53.0,47.0,29.77,East,80,0.0,0.0,81,0.00,,,0.00,,2013-05-05 04:02:00,
2013-05-04 21:22:00,53.0,48.0,29.77,East,80,0.0,0.0,82,0.00,,,0.00,,2013-05-05 04:22:00,
2013-05-04 21:32:00,52.0,47.0,29.78,East,80,0.0,0.0,84,0.00,,,0.00,,2013-05-05 04:32:00,
2013-05-04 22:21:00,50.0,46.0,29.78,East,80,0.0,0.0,87,0.00,,,0.00,,2013-05-05 05:21:00,
2013-05-04 22:31:00,50.0,46.0,29.78,East,80,0.0,0.0,87,0.00,,,0.00,,2013-05-05 05:31:00,
2013-05-04 22:51:00,50.0,46.0,29.78,East,80,0.0,0.0,85,0.00,,,0.00,,2013-05-05 05:51:00,
2013-05-04 23:01:00,51.0,46.0,29.77,East,80,0.0,0.0,83,0.00,,,0.00,,2013-05-05 06:01:00,
2013-05-04 23:21:00,52.0,46.0,29.77,East,80,0.0,0.0,81,0.00,,,0.00,,2013-05-05 06:21:00,